Time;durP1;ratioP1;P1;durP2;ratioP2;P2;SDS_P1;SDS_P2;PMS_P1;PMS_P2;Temp;Humidity;BMP_temperature;BMP_pressure;BME280_temperature;BME280_humidity;BME280_pressure;Samples;Min_cycle;Max_cycle;Signal;HPM_P1;HPM_P2
2023/06/26 00:01:03;;;;;;;9.98;8.82;;;;;;;-142.43;100.00;63430.59;4953107;29;20039;-77
2023/06/26 00:03:29;;;;;;;10.13;9.02;;;;;;;-142.43;100.00;63430.59;4959231;29;20083;-78
2023/06/26 00:06:00;;;;;;;10.27;9.23;;;;;;;-142.43;100.00;63430.59;4970658;29;20051;-79
2023/06/26 00:08:27;;;;;;;10.80;9.40;;;;;;;-142.43;100.00;63430.59;4963007;29;20078;-77
2023/06/26 00:10:55;;;;;;;11.25;9.60;;;;;;;-142.43;100.00;63430.59;4955526;29;20122;-79
2023/06/26 00:13:22;;;;;;;12.13;9.45;;;;;;;-142.43;100.00;63430.59;4956427;29;20075;-76
2023/06/26 00:15:49;;;;;;;10.88;9.27;;;;;;;-142.43;100.00;63430.59;4956653;29;20122;-78
2023/06/26 00:18:16;;;;;;;10.70;9.60;;;;;;;-142.43;100.00;63430.59;4956356;29;20130;-78
2023/06/26 00:20:42;;;;;;;10.68;8.63;;;;;;;-142.43;100.00;63430.59;4956750;29;20133;-79
2023/06/26 00:23:09;;;;;;;11.88;9.23;;;;;;;-142.43;100.00;63430.59;4955982;29;20047;-79
2023/06/26 00:25:36;;;;;;;12.15;9.43;;;;;;;-142.43;100.00;63430.59;4956842;29;20118;-78
2023/06/26 00:28:04;;;;;;;12.23;9.65;;;;;;;-142.43;100.00;63430.59;4957524;29;20130;-81
2023/06/26 00:30:31;;;;;;;10.77;9.02;;;;;;;-142.43;100.00;63430.59;4956154;29;20070;-79
2023/06/26 00:32:57;;;;;;;11.18;9.13;;;;;;;-142.43;100.00;63430.59;4952729;29;20051;-79
2023/06/26 00:35:24;;;;;;;10.88;9.77;;;;;;;-142.43;100.00;63430.59;4957677;29;20079;-78
2023/06/26 00:37:50;;;;;;;10.70;9.55;;;;;;;-142.43;100.00;63430.59;4956988;29;20047;-79
2023/06/26 00:40:17;;;;;;;11.25;9.73;;;;;;;-142.43;100.00;63430.59;4955328;29;20055;-79
2023/06/26 00:42:44;;;;;;;11.93;9.40;;;;;;;-142.43;100.00;63430.59;4955614;28;20079;-79
2023/06/26 00:45:12;;;;;;;11.70;9.27;;;;;;;-142.43;100.00;63430.59;4948420;29;20051;-78
2023/06/26 00:47:39;;;;;;;10.07;9.07;;;;;;;-142.43;100.00;63430.59;4956135;29;20147;-78
2023/06/26 00:50:07;;;;;;;13.23;9.75;;;;;;;-142.43;100.00;63430.59;4956243;29;20538;-80
2023/06/26 00:52:34;;;;;;;10.27;9.18;;;;;;;-142.43;100.00;63430.59;4957326;29;20110;-78
2023/06/26 00:55:00;;;;;;;11.80;9.43;;;;;;;-142.43;100.00;63430.59;4957811;29;20126;-80
2023/06/26 00:57:28;;;;;;;10.45;9.40;;;;;;;-142.43;100.00;63430.59;4959014;29;20143;-79
2023/06/26 00:59:55;;;;;;;12.40;9.30;;;;;;;-142.43;100.00;63430.59;4959559;29;20218;-80
2023/06/26 01:02:23;;;;;;;10.43;9.32;;;;;;;-142.43;100.00;63430.59;4960329;29;20130;-79
2023/06/26 01:04:51;;;;;;;11.07;8.93;;;;;;;-142.43;100.00;63430.59;4951458;29;20049;-80
2023/06/26 01:07:19;;;;;;;11.05;9.35;;;;;;;-142.43;100.00;63430.59;4957108;29;20051;-79
2023/06/26 01:09:48;;;;;;;10.88;9.27;;;;;;;-142.43;100.00;63430.59;4952698;29;20059;-80
2023/06/26 01:12:14;;;;;;;10.02;9.02;;;;;;;-142.43;100.00;63430.59;4953075;29;20465;-78
2023/06/26 01:14:43;;;;;;;12.50;9.35;;;;;;;-142.43;100.00;63430.59;4947823;29;20210;-79
2023/06/26 01:17:13;;;;;;;12.65;8.93;;;;;;;-142.43;100.00;63430.59;4955302;29;20082;-78
2023/06/26 01:19:42;;;;;;;11.85;9.30;;;;;;;-142.43;100.00;63430.59;4946511;29;20058;-78
2023/06/26 01:22:17;;;;;;;11.77;8.95;;;;;;;-142.43;100.00;63430.59;4956744;29;20470;-79
2023/06/26 01:24:54;;;;;;;11.77;9.52;;;;;;;-142.43;100.00;63430.59;4953872;29;20083;-79
2023/06/26 01:27:23;;;;;;;13.18;9.57;;;;;;;-142.43;100.00;63430.59;4948557;29;20050;-78
2023/06/26 01:29:52;;;;;;;10.30;9.20;;;;;;;-142.43;100.00;63430.59;4956337;29;20051;-78
2023/06/26 01:32:19;;;;;;;11.30;9.70;;;;;;;-142.43;100.00;63430.59;4948138;29;20051;-79
2023/06/26 01:34:46;;;;;;;10.73;9.63;;;;;;;-142.43;100.00;63430.59;4956640;29;20075;-78
2023/06/26 01:37:13;;;;;;;13.27;9.80;;;;;;;-142.43;100.00;63430.59;4956870;29;20071;-79
2023/06/26 01:39:39;;;;;;;12.02;9.95;;;;;;;-142.43;100.00;63430.59;4956650;29;20590;-79
2023/06/26 01:42:07;;;;;;;11.18;9.98;;;;;;;-142.43;100.00;63430.59;4956398;29;20129;-79
2023/06/26 01:44:41;;;;;;;12.07;10.57;;;;;;;-142.43;100.00;63430.59;4947922;29;20142;-78
2023/06/26 01:47:14;;;;;;;13.38;10.45;;;;;;;-142.43;100.00;63430.59;4956409;29;20075;-80
2023/06/26 01:49:47;;;;;;;13.15;11.35;;;;;;;-142.43;100.00;63430.59;4956531;29;20054;-79
2023/06/26 01:52:22;;;;;;;19.88;10.75;;;;;;;-142.43;100.00;63430.59;4955910;28;20069;-79
2023/06/26 01:54:55;;;;;;;12.73;10.70;;;;;;;-142.43;100.00;63430.59;4949806;29;20066;-79
2023/06/26 01:57:23;;;;;;;11.60;9.82;;;;;;;-142.43;100.00;63430.59;4953909;29;20082;-78
2023/06/26 01:59:52;;;;;;;11.23;9.77;;;;;;;-142.43;100.00;63430.59;4956327;29;20054;-79
2023/06/26 02:02:18;;;;;;;14.38;10.23;;;;;;;-142.43;100.00;63430.59;4947304;29;20117;-79
2023/06/26 02:04:48;;;;;;;11.40;9.68;;;;;;;-142.43;100.00;63430.59;4956060;29;20127;-79
2023/06/26 02:07:14;;;;;;;13.10;9.23;;;;;;;-142.43;100.00;63430.59;4948042;29;20048;-79
2023/06/26 02:09:41;;;;;;;10.68;9.50;;;;;;;-142.43;100.00;63430.59;4950655;29;20055;-79
2023/06/26 02:12:08;;;;;;;10.48;8.88;;;;;;;-142.43;100.00;63430.59;4955783;29;20126;-77
2023/06/26 02:14:35;;;;;;;11.30;9.10;;;;;;;-142.43;100.00;63430.59;4955202;29;20395;-78
2023/06/26 02:17:03;;;;;;;13.77;10.15;;;;;;;-142.43;100.00;63430.59;4955171;29;20138;-78
2023/06/26 02:19:30;;;;;;;10.20;9.00;;;;;;;-142.43;100.00;63430.59;4956130;29;20476;-77
2023/06/26 02:21:56;;;;;;;13.45;8.95;;;;;;;-142.43;100.00;63430.59;4955988;29;20152;-78
2023/06/26 02:24:23;;;;;;;10.73;9.20;;;;;;;-142.43;100.00;63430.59;4948590;29;20048;-79
2023/06/26 02:26:50;;;;;;;12.73;8.77;;;;;;;-142.43;100.00;63430.59;4950558;29;20209;-79
2023/06/26 02:29:16;;;;;;;11.15;9.52;;;;;;;-142.43;100.00;63430.59;4934476;29;20058;-78
2023/06/26 02:31:43;;;;;;;9.65;8.60;;;;;;;-142.43;100.00;63430.59;4934891;29;20062;-78
2023/06/26 02:34:11;;;;;;;10.40;9.30;;;;;;;-142.43;100.00;63430.59;4949209;29;20428;-78
2023/06/26 02:36:39;;;;;;;11.65;8.95;;;;;;;-142.43;100.00;63430.59;4952731;29;20138;-77
2023/06/26 02:39:05;;;;;;;14.77;9.43;;;;;;;-142.43;100.00;63430.59;4952753;29;20051;-76
2023/06/26 02:41:32;;;;;;;10.80;9.10;;;;;;;-142.43;100.00;63430.59;4953338;29;20142;-78
2023/06/26 02:43:59;;;;;;;10.23;8.82;;;;;;;-142.43;100.00;63430.59;4954703;29;20047;-78
2023/06/26 02:46:25;;;;;;;11.65;8.40;;;;;;;-142.43;100.00;63430.59;4954581;29;20134;-78
2023/06/26 02:48:52;;;;;;;10.57;8.35;;;;;;;-142.43;100.00;63430.59;4956100;29;20521;-76
2023/06/26 02:51:20;;;;;;;11.10;9.45;;;;;;;-142.43;100.00;63430.59;4956971;29;20518;-79
2023/06/26 02:53:49;;;;;;;11.48;8.82;;;;;;;-142.43;100.00;63430.59;4960525;29;20059;-77
2023/06/26 02:56:15;;;;;;;10.38;9.25;;;;;;;-142.43;100.00;63430.59;4964019;29;20056;-78
2023/06/26 02:58:42;;;;;;;9.98;8.95;;;;;;;-142.43;100.00;63430.59;4965973;29;20071;-77
2023/06/26 03:01:09;;;;;;;10.25;9.10;;;;;;;-142.43;100.00;63430.59;4964243;29;20055;-77
2023/06/26 03:03:40;;;;;;;10.07;9.00;;;;;;;-142.43;100.00;63430.59;4956021;28;20283;-77
2023/06/26 03:06:06;;;;;;;9.95;8.85;;;;;;;-142.43;100.00;63430.59;4958755;29;20113;-80
2023/06/26 03:08:37;;;;;;;12.43;9.00;;;;;;;-142.43;100.00;63430.59;4958774;29;20051;-77
2023/06/26 03:11:07;;;;;;;10.35;9.20;;;;;;;-142.43;100.00;63430.59;4958711;29;20131;-78
2023/06/26 03:13:33;;;;;;;11.70;8.45;;;;;;;-142.43;100.00;63430.59;4957902;29;20547;-78
2023/06/26 03:16:00;;;;;;;13.35;9.65;;;;;;;-142.43;100.00;63430.59;4957764;29;20194;-78
2023/06/26 03:18:27;;;;;;;10.15;9.15;;;;;;;-142.43;100.00;63430.59;4958427;29;20492;-79
2023/06/26 03:20:54;;;;;;;11.27;9.02;;;;;;;-142.43;100.00;63430.59;4962948;29;20125;-78
2023/06/26 03:23:21;;;;;;;10.65;9.30;;;;;;;-142.43;100.00;63430.59;4960021;29;20047;-80
2023/06/26 03:25:50;;;;;;;9.73;8.73;;;;;;;-142.43;100.00;63430.59;4960310;29;20082;-78
2023/06/26 03:28:16;;;;;;;14.90;9.63;;;;;;;-142.43;100.00;63430.59;4959979;29;20075;-77
2023/06/26 03:30:43;;;;;;;11.50;9.57;;;;;;;-142.43;100.00;63430.59;4958310;29;20058;-77
2023/06/26 03:33:10;;;;;;;14.40;9.60;;;;;;;-142.43;100.00;63430.59;4957814;29;20493;-79
2023/06/26 03:35:37;;;;;;;10.15;8.55;;;;;;;-142.43;100.00;63430.59;4957433;29;20078;-79
2023/06/26 03:38:05;;;;;;;10.25;8.98;;;;;;;-142.43;100.00;63430.59;4957270;29;20043;-78
2023/06/26 03:40:32;;;;;;;13.70;9.20;;;;;;;-142.43;100.00;63430.59;4956159;29;20118;-77
2023/06/26 03:43:00;;;;;;;11.45;9.77;;;;;;;-142.43;100.00;63430.59;4956236;29;20054;-79
2023/06/26 03:45:27;;;;;;;10.55;9.18;;;;;;;-142.43;100.00;63430.59;4955346;29;20470;-79
2023/06/26 03:47:53;;;;;;;11.60;8.90;;;;;;;-142.43;100.00;63430.59;4956412;29;20082;-78
2023/06/26 03:50:20;;;;;;;10.45;9.07;;;;;;;-142.43;100.00;63430.59;4955822;29;20138;-78
2023/06/26 03:52:47;;;;;;;15.52;9.13;;;;;;;-142.43;100.00;63430.59;4955250;29;20127;-77
2023/06/26 03:55:13;;;;;;;13.93;10.00;;;;;;;-142.43;100.00;63430.59;4955467;29;20139;-79
2023/06/26 03:57:40;;;;;;;12.95;9.32;;;;;;;-142.43;100.00;63430.59;4955134;29;20142;-78
2023/06/26 04:00:11;;;;;;;10.68;9.07;;;;;;;-142.43;100.00;63430.59;4955997;29;20386;-78
2023/06/26 04:02:38;;;;;;;11.85;9.32;;;;;;;-142.43;100.00;63430.59;4956045;29;20059;-78
2023/06/26 04:05:05;;;;;;;10.88;8.60;;;;;;;-142.43;100.00;63430.59;4956886;29;20122;-80
2023/06/26 04:07:32;;;;;;;12.18;8.73;;;;;;;-142.43;100.00;63430.59;4957583;29;20059;-79
2023/06/26 04:09:59;;;;;;;11.55;9.35;;;;;;;-142.43;100.00;63430.59;4948744;29;20172;-79
2023/06/26 04:12:25;;;;;;;15.43;9.23;;;;;;;-142.43;100.00;63430.59;4956232;29;20197;-78
2023/06/26 04:14:52;;;;;;;12.18;8.40;;;;;;;-142.43;100.00;63430.59;4956408;29;20086;-78
2023/06/26 04:17:21;;;;;;;9.80;8.30;;;;;;;-142.43;100.00;63430.59;4955006;28;20094;-79
2023/06/26 04:19:48;;;;;;;10.52;8.25;;;;;;;-142.43;100.00;63430.59;4956815;29;20055;-77
2023/06/26 04:22:15;;;;;;;14.00;8.18;;;;;;;-142.43;100.00;63430.59;4957077;29;20055;-78
2023/06/26 04:24:41;;;;;;;11.23;8.05;;;;;;;-142.43;100.00;63430.59;4955918;29;20047;-80
2023/06/26 04:27:08;;;;;;;12.52;8.70;;;;;;;-142.43;100.00;63430.59;4955827;29;20130;-78
2023/06/26 04:29:34;;;;;;;11.80;8.73;;;;;;;-142.43;100.00;63430.59;4954639;29;20047;-77
2023/06/26 04:32:01;;;;;;;12.63;8.25;;;;;;;-142.43;100.00;63430.59;4957030;29;20078;-80
2023/06/26 04:34:32;;;;;;;10.40;8.60;;;;;;;-142.43;100.00;63430.59;4957597;29;20086;-78
2023/06/26 04:36:59;;;;;;;11.73;8.30;;;;;;;-142.43;100.00;63430.59;4956823;29;20513;-79
2023/06/26 04:39:30;;;;;;;10.75;7.75;;;;;;;-142.43;100.00;63430.59;4955045;29;20055;-77
2023/06/26 04:41:57;;;;;;;12.07;7.65;;;;;;;-142.43;100.00;63430.59;4953775;29;20081;-79
2023/06/26 04:44:23;;;;;;;12.20;7.57;;;;;;;-142.43;100.00;63430.59;4956065;29;20051;-80
2023/06/26 04:46:51;;;;;;;20.38;7.85;;;;;;;-142.43;100.00;63430.59;4955299;29;20082;-79
2023/06/26 04:49:18;;;;;;;13.45;8.07;;;;;;;-142.43;100.00;63430.59;4957103;29;20086;-79
2023/06/26 04:51:46;;;;;;;10.23;7.35;;;;;;;-142.43;100.00;63430.59;4956758;29;20058;-79
2023/06/26 04:54:13;;;;;;;11.45;7.78;;;;;;;-142.43;100.00;63430.59;4956505;29;20157;-78
2023/06/26 04:56:42;;;;;;;11.10;7.45;;;;;;;-142.43;100.00;63430.59;4956703;29;20059;-79
2023/06/26 04:59:13;;;;;;;12.25;8.13;;;;;;;-142.43;100.00;63430.59;4957126;29;20051;-79
2023/06/26 05:01:39;;;;;;;10.82;7.57;;;;;;;-142.43;100.00;63430.59;5004011;23;20059;-80
2023/06/26 05:04:06;;;;;;;10.00;7.50;;;;;;;-142.43;100.00;63430.59;4961785;28;20071;-82
2023/06/26 05:06:33;;;;;;;11.07;7.32;;;;;;;-142.43;100.00;63430.59;4969599;28;20075;-80
2023/06/26 05:09:01;;;;;;;12.95;7.47;;;;;;;-142.43;100.00;63430.59;4965177;28;20458;-79
2023/06/26 05:11:27;;;;;;;11.05;7.60;;;;;;;-142.43;100.00;63430.59;4959947;28;20114;-80
2023/06/26 05:13:57;;;;;;;11.75;7.68;;;;;;;-142.43;100.00;63430.59;4955083;29;20051;-80
2023/06/26 05:16:24;;;;;;;9.73;7.47;;;;;;;-142.43;100.00;63430.59;4953879;29;20047;-81
2023/06/26 05:18:50;;;;;;;13.65;7.82;;;;;;;-142.43;100.00;63430.59;4954601;29;20091;-80
2023/06/26 05:21:17;;;;;;;9.68;7.90;;;;;;;-142.43;100.00;63430.59;4953198;29;20055;-80
2023/06/26 05:23:45;;;;;;;9.60;7.43;;;;;;;-142.43;100.00;63430.59;4955827;29;20056;-80
2023/06/26 05:26:14;;;;;;;11.18;7.65;;;;;;;-142.43;100.00;63430.59;4954919;29;20055;-80
2023/06/26 05:28:50;;;;;;;12.38;7.95;;;;;;;-142.43;100.00;63430.59;4954768;28;20396;-81
2023/06/26 05:31:18;;;;;;;10.10;7.85;;;;;;;-142.43;100.00;63430.59;4956507;29;20160;-79
2023/06/26 05:33:46;;;;;;;9.90;7.05;;;;;;;-142.43;100.00;63430.59;4944412;29;20062;-80
2023/06/26 05:36:13;;;;;;;8.90;7.45;;;;;;;-142.43;100.00;63430.59;4956805;29;20134;-79
2023/06/26 05:38:41;;;;;;;9.38;7.25;;;;;;;-142.43;100.00;63430.59;4953362;29;20119;-80
2023/06/26 05:41:08;;;;;;;13.95;7.45;;;;;;;-142.43;100.00;63430.59;4952608;29;20074;-80
2023/06/26 05:43:36;;;;;;;9.38;7.47;;;;;;;-142.43;100.00;63430.59;4951346;29;20047;-80
2023/06/26 05:46:02;;;;;;;10.25;7.53;;;;;;;-142.43;100.00;63430.59;4953926;29;20130;-79
2023/06/26 05:48:29;;;;;;;12.15;7.35;;;;;;;-142.43;100.00;63430.59;4951514;29;20155;-80
2023/06/26 05:50:56;;;;;;;13.38;7.22;;;;;;;-142.43;100.00;63430.59;4950872;29;20105;-80
2023/06/26 05:53:24;;;;;;;10.70;7.07;;;;;;;-142.43;100.00;63430.59;4952838;29;20086;-81
2023/06/26 05:55:51;;;;;;;11.20;7.40;;;;;;;-142.43;100.00;63430.59;4950192;29;20522;-81
2023/06/26 05:58:20;;;;;;;11.00;6.97;;;;;;;-142.43;100.00;63430.59;4946409;29;20079;-79
2023/06/26 06:00:48;;;;;;;12.75;7.20;;;;;;;-142.43;100.00;63430.59;4948937;29;20110;-82
2023/06/26 06:03:14;;;;;;;14.65;7.40;;;;;;;-142.43;100.00;63430.59;4954640;29;20563;-81
2023/06/26 06:05:41;;;;;;;11.80;7.55;;;;;;;-142.43;100.00;63430.59;4951227;29;20452;-81
2023/06/26 06:08:08;;;;;;;11.48;6.88;;;;;;;-142.43;100.00;63430.59;4945958;29;20075;-82
2023/06/26 06:10:36;;;;;;;10.02;6.63;;;;;;;-142.43;100.00;63430.59;4948457;29;20097;-82
2023/06/26 06:13:02;;;;;;;10.68;6.85;;;;;;;-142.43;100.00;63430.59;4955560;29;20066;-83
2023/06/26 06:15:29;;;;;;;10.55;6.88;;;;;;;-142.43;100.00;63430.59;4953577;29;20572;-82
2023/06/26 06:17:57;;;;;;;9.80;6.90;;;;;;;-142.43;100.00;63430.59;4953432;29;20145;-81
2023/06/26 06:20:23;;;;;;;10.52;7.13;;;;;;;-142.43;100.00;63430.59;4953015;29;20087;-81
2023/06/26 06:22:50;;;;;;;14.52;7.10;;;;;;;-142.43;100.00;63430.59;4951649;29;20135;-83
2023/06/26 06:25:16;;;;;;;14.00;7.05;;;;;;;-142.43;100.00;63430.59;4959557;29;20043;-81
2023/06/26 06:27:43;;;;;;;10.20;7.05;;;;;;;-142.43;100.00;63430.59;4954572;29;20086;-82
2023/06/26 06:30:11;;;;;;;9.35;6.68;;;;;;;-142.43;100.00;63430.59;4953415;29;20054;-82
2023/06/26 06:32:38;;;;;;;16.63;7.85;;;;;;;-142.43;100.00;63430.59;4943135;29;20051;-82
2023/06/26 06:35:09;;;;;;;8.57;6.65;;;;;;;-142.43;100.00;63430.59;4951205;29;20084;-82
2023/06/26 06:37:36;;;;;;;9.02;6.90;;;;;;;-142.43;100.00;63430.59;4951918;29;20055;-82
2023/06/26 06:40:04;;;;;;;10.38;6.88;;;;;;;-142.43;100.00;63430.59;4962027;28;20114;-80
2023/06/26 06:42:31;;;;;;;9.35;6.35;;;;;;;-142.43;100.00;63430.59;4949892;29;20070;-81
2023/06/26 06:44:58;;;;;;;11.45;6.82;;;;;;;-142.43;100.00;63430.59;4957422;29;20055;-81
2023/06/26 06:47:24;;;;;;;10.27;6.68;;;;;;;-142.43;100.00;63430.59;4957990;29;20078;-82
2023/06/26 06:49:51;;;;;;;14.50;6.93;;;;;;;-142.43;100.00;63430.59;4953013;29;20158;-81
2023/06/26 06:52:19;;;;;;;11.88;6.50;;;;;;;-142.43;100.00;63430.59;4954917;29;20078;-82
2023/06/26 06:54:53;;;;;;;10.15;6.88;;;;;;;-142.43;100.00;63430.59;4949071;29;20067;-80
2023/06/26 06:57:20;;;;;;;15.15;6.70;;;;;;;-142.43;100.00;63430.59;4948379;29;20047;-80
2023/06/26 06:59:47;;;;;;;13.25;6.68;;;;;;;-142.43;100.00;63430.59;4951229;29;20380;-80
2023/06/26 07:02:14;;;;;;;8.95;6.32;;;;;;;-142.43;100.00;63430.59;4947102;29;20051;-82
2023/06/26 07:04:40;;;;;;;13.07;6.72;;;;;;;-142.43;100.00;63430.59;4947562;29;20078;-82
2023/06/26 07:07:08;;;;;;;10.80;6.50;;;;;;;-142.43;100.00;63430.59;4950109;29;20098;-81
2023/06/26 07:09:36;;;;;;;14.05;7.57;;;;;;;-142.43;100.00;63430.59;4951502;29;20094;-81
2023/06/26 07:12:03;;;;;;;13.88;7.25;;;;;;;-142.43;100.00;63430.59;4956478;29;20130;-81
2023/06/26 07:14:30;;;;;;;15.05;7.60;;;;;;;-142.43;100.00;63430.59;4951252;29;20127;-80
2023/06/26 07:16:56;;;;;;;14.13;7.13;;;;;;;-142.43;100.00;63430.59;4951762;29;20142;-81
2023/06/26 07:19:23;;;;;;;18.50;7.28;;;;;;;-142.43;100.00;63430.59;4953312;29;20114;-81
2023/06/26 07:21:50;;;;;;;13.25;7.18;;;;;;;-142.43;100.00;63430.59;4945569;29;20641;-81
2023/06/26 07:24:16;;;;;;;16.83;7.63;;;;;;;-142.43;100.00;63430.59;4947375;29;20067;-81
2023/06/26 07:26:45;;;;;;;11.25;6.95;;;;;;;-142.43;100.00;63430.59;4938608;29;20140;-80
2023/06/26 07:29:11;;;;;;;15.32;7.45;;;;;;;-142.43;100.00;63430.59;4947181;29;20091;-80
2023/06/26 07:31:38;;;;;;;13.13;6.75;;;;;;;-142.43;100.00;63430.59;4945117;29;20075;-80
2023/06/26 07:34:05;;;;;;;15.68;7.22;;;;;;;-142.43;100.00;63430.59;4941450;29;20082;-80
2023/06/26 07:36:32;;;;;;;15.85;7.05;;;;;;;-142.43;100.00;63430.59;4943823;29;20071;-81
2023/06/26 07:38:59;;;;;;;15.75;7.18;;;;;;;-142.43;100.00;63430.59;4945861;29;20043;-81
2023/06/26 07:41:25;;;;;;;13.27;6.88;;;;;;;-142.43;100.00;63430.59;4935526;29;20138;-81
2023/06/26 07:43:53;;;;;;;13.32;7.20;;;;;;;-142.43;100.00;63430.59;4944290;29;20067;-81
2023/06/26 07:46:20;;;;;;;10.63;6.53;;;;;;;-142.43;100.00;63430.59;4942646;29;20536;-80
2023/06/26 07:48:46;;;;;;;13.60;7.03;;;;;;;-142.43;100.00;63430.59;4942836;29;20094;-82
2023/06/26 07:51:13;;;;;;;11.27;7.00;;;;;;;-142.43;100.00;63430.59;4941905;29;20090;-82
2023/06/26 07:53:40;;;;;;;12.75;7.35;;;;;;;-142.43;100.00;63430.59;4945679;29;20065;-81
2023/06/26 07:56:07;;;;;;;14.85;6.95;;;;;;;-142.43;100.00;63430.59;4940863;29;20473;-82
2023/06/26 07:58:33;;;;;;;11.40;7.70;;;;;;;-142.43;100.00;63430.59;4942708;29;20602;-82
2023/06/26 08:01:03;;;;;;;11.85;6.78;;;;;;;-142.43;100.00;63430.59;4943776;29;20431;-82
2023/06/26 08:03:30;;;;;;;12.75;6.95;;;;;;;-142.43;100.00;63430.59;4940139;29;20130;-81
2023/06/26 08:05:57;;;;;;;12.90;6.97;;;;;;;-142.43;100.00;63430.59;4943026;29;20044;-82
2023/06/26 08:08:26;;;;;;;15.05;7.03;;;;;;;-142.43;100.00;63430.59;4940286;29;20055;-81
2023/06/26 08:10:52;;;;;;;14.88;7.25;;;;;;;-142.43;100.00;63430.59;4940581;29;20191;-81
2023/06/26 08:13:19;;;;;;;13.65;7.10;;;;;;;-142.43;100.00;63430.59;4942787;29;20139;-81
2023/06/26 08:15:45;;;;;;;12.25;7.65;;;;;;;-142.43;100.00;63430.59;4943814;29;20174;-82
2023/06/26 08:18:13;;;;;;;14.30;7.32;;;;;;;-142.43;100.00;63430.59;4943660;29;20075;-82
2023/06/26 08:20:40;;;;;;;12.20;7.80;;;;;;;-142.43;100.00;63430.59;4938893;29;20096;-81
2023/06/26 08:23:07;;;;;;;14.25;7.13;;;;;;;-142.43;100.00;63430.59;4939640;29;20055;-81
2023/06/26 08:25:33;;;;;;;10.82;7.45;;;;;;;-142.43;100.00;63430.59;4942492;29;20103;-80
2023/06/26 08:28:03;;;;;;;18.75;7.40;;;;;;;-142.43;100.00;63430.59;4945387;29;20056;-81
2023/06/26 08:30:30;;;;;;;20.98;7.20;;;;;;;-142.43;100.00;63430.59;4946360;29;20071;-81
2023/06/26 08:32:56;;;;;;;13.35;6.78;;;;;;;-142.43;100.00;63430.59;4942777;29;20079;-82
2023/06/26 09:32:51;;;;;;;15.93;6.32;;;;;;;24.97;63.99;100881.09;5151708;27;20103;-80
2023/06/26 09:35:18;;;;;;;13.55;6.03;;;;;;;24.22;66.01;100881.38;5163781;27;20034;-79
2023/06/26 09:37:45;;;;;;;15.63;6.35;;;;;;;24.70;66.37;100889.72;5164381;27;20073;-82
2023/06/26 09:40:12;;;;;;;14.35;6.45;;;;;;;25.40;65.35;100883.84;5163832;27;20096;-82
2023/06/26 09:42:38;;;;;;;11.02;6.45;;;;;;;25.73;62.87;100874.09;5171062;27;20173;-78
2023/06/26 09:45:06;;;;;;;8.52;6.05;;;;;;;26.49;63.03;100896.34;5155675;27;20057;-83
2023/06/26 09:47:35;;;;;;;12.30;6.25;;;;;;;26.83;59.68;100877.31;5170379;27;20039;-81
2023/06/26 09:50:05;;;;;;;12.45;6.55;;;;;;;25.17;63.31;100888.59;5173569;27;20050;-81
2023/06/26 09:52:34;;;;;;;12.07;6.80;;;;;;;24.85;64.80;100891.84;5170565;27;20042;-82
2023/06/26 09:55:11;;;;;;;13.30;6.47;;;;;;;25.31;64.31;100889.88;5173083;27;20106;-80
2023/06/26 09:57:39;;;;;;;13.55;7.20;;;;;;;24.86;63.97;100892.66;5176685;27;20042;-80
2023/06/26 10:00:09;;;;;;;18.48;7.40;;;;;;;24.86;64.44;100898.81;5167825;27;20057;-79
2023/06/26 10:02:35;;;;;;;12.15;6.28;;;;;;;25.62;62.21;100891.06;5171302;27;20489;-81
2023/06/26 10:05:06;;;;;;;13.98;6.35;;;;;;;26.03;61.96;100903.91;5170452;27;20065;-81
2023/06/26 10:07:34;;;;;;;14.63;6.47;;;;;;;25.07;62.77;100899.97;5166547;27;20070;-77
2023/06/26 10:10:03;;;;;;;13.50;6.07;;;;;;;24.35;64.58;100879.25;5174520;27;20042;-78
2023/06/26 10:12:33;;;;;;;11.82;6.60;;;;;;;24.26;65.61;100898.59;5165693;27;20063;-78
2023/06/26 10:15:01;;;;;;;9.85;6.30;;;;;;;24.34;65.48;100901.69;5166288;27;20045;-79
2023/06/26 10:17:31;;;;;;;11.45;6.07;;;;;;;24.80;63.69;100897.94;5163573;27;20039;-79
2023/06/26 10:20:03;;;;;;;10.93;5.85;;;;;;;25.26;62.33;100913.91;5163289;27;20068;-79
2023/06/26 10:22:36;;;;;;;11.80;5.43;;;;;;;25.09;62.07;100900.53;5169985;27;20093;-81
2023/06/26 10:25:07;;;;;;;10.63;6.07;;;;;;;25.49;61.94;100896.81;5167450;27;20050;-80
2023/06/26 10:27:37;;;;;;;12.68;6.22;;;;;;;25.22;61.98;100900.19;5166881;27;20181;-79
2023/06/26 10:30:07;;;;;;;9.32;5.38;;;;;;;25.59;60.70;100900.41;5160516;27;20074;-80
2023/06/26 10:32:34;;;;;;;9.40;5.38;;;;;;;25.69;59.43;100892.53;5148982;27;20123;-82
2023/06/26 10:35:02;;;;;;;10.25;5.20;;;;;;;26.03;58.52;100901.22;5157059;27;20072;-81
2023/06/26 10:37:51;;;;;;;10.57;5.35;;;;;;;25.29;59.02;100908.88;5157872;27;20103;-80
2023/06/26 10:40:25;;;;;;;9.55;5.05;;;;;;;25.38;59.17;100895.88;5150338;27;20086;-79
2023/06/26 10:43:05;;;;;;;12.23;5.10;;;;;;;25.79;58.09;100899.91;5158691;27;20050;-81
2023/06/26 10:45:34;;;;;;;10.88;4.97;;;;;;;24.64;59.45;100898.72;5148452;27;20039;-80
2023/06/26 10:48:01;;;;;;;16.40;5.05;;;;;;;24.86;60.27;100909.53;5149815;27;20038;-80
2023/06/26 10:50:30;;;;;;;8.90;5.30;;;;;;;24.97;59.05;100900.66;5159027;27;20078;-82
2023/06/26 10:53:13;;;;;;;10.48;5.38;;;;;;;25.45;58.57;100902.66;5148383;27;20389;-80
2023/06/26 10:55:44;;;;;;;12.20;5.50;;;;;;;25.68;59.23;100909.69;5149274;27;20473;-80
2023/06/26 10:58:34;;;;;;;13.50;5.78;;;;;;;25.65;58.77;100896.78;5145069;27;20094;-82
2023/06/26 11:01:21;;;;;;;9.18;4.90;;;;;;;26.04;58.03;100894.81;5147569;27;20494;-78
2023/06/26 11:03:50;;;;;;;7.15;5.10;;;;;;;26.09;58.52;100897.56;5152357;27;20054;-82
2023/06/26 11:06:20;;;;;;;8.07;4.80;;;;;;;26.37;55.81;100895.72;5148148;27;20517;-82
2023/06/26 11:08:49;;;;;;;9.48;5.15;;;;;;;26.20;56.73;100909.19;5151360;27;20043;-81
2023/06/26 11:11:17;;;;;;;12.05;5.72;;;;;;;26.02;56.34;100902.28;5148895;27;20131;-81
2023/06/26 11:13:46;;;;;;;11.68;5.15;;;;;;;26.16;56.86;100910.75;5148966;27;20577;-82
2023/06/26 11:16:14;;;;;;;9.30;4.68;;;;;;;26.11;57.18;100911.50;5146118;27;20079;-79
2023/06/26 11:18:41;;;;;;;15.07;5.15;;;;;;;25.68;56.73;100916.91;5148500;27;20043;-80
2023/06/26 11:21:09;;;;;;;13.70;5.30;;;;;;;25.57;58.63;100926.66;5156130;27;20058;-82
2023/06/26 11:23:37;;;;;;;10.93;5.22;;;;;;;25.07;58.81;100913.34;5156215;27;20046;-78
2023/06/26 11:26:27;;;;;;;10.80;4.68;;;;;;;25.10;57.29;100910.19;5155868;27;20069;-82
2023/06/26 11:28:56;;;;;;;7.30;4.45;;;;;;;25.16;57.26;100919.91;5143196;27;20086;-82
2023/06/26 11:31:26;;;;;;;9.55;4.68;;;;;;;24.85;57.26;100923.16;5156543;27;20042;-83
2023/06/26 11:33:54;;;;;;;8.88;4.10;;;;;;;25.11;55.52;100914.47;5156972;27;20126;-81
2023/06/26 11:36:20;;;;;;;14.98;4.72;;;;;;;25.59;55.75;100913.00;5155078;27;20078;-83
2023/06/26 11:38:53;;;;;;;10.68;4.78;;;;;;;25.18;56.16;100911.63;5153355;27;20066;-80
2023/06/26 11:41:19;;;;;;;;;;;;;;;25.60;56.71;100919.97;5157329;27;20776;-81
2023/06/26 11:43:47;;;;;;;6.07;4.35;;;;;;;26.12;56.34;100921.19;5162849;27;19957;-82
2023/06/26 11:46:17;;;;;;;7.55;4.13;;;;;;;26.25;54.86;100911.13;5152273;27;20066;-82
2023/06/26 11:48:44;;;;;;;9.50;4.68;;;;;;;26.65;54.53;100922.25;5152511;27;20063;-81
2023/06/26 11:51:13;;;;;;;10.52;4.40;;;;;;;27.25;52.69;100914.94;5151392;27;20046;-83
2023/06/26 11:53:41;;;;;;;7.35;4.28;;;;;;;27.58;51.81;100919.94;5153804;27;20047;-81
2023/06/26 11:56:10;;;;;;;10.05;4.38;;;;;;;27.04;52.27;100914.00;5156260;27;20051;-81
2023/06/26 11:58:36;;;;;;;7.40;4.10;;;;;;;26.67;52.81;100919.31;5157722;27;20129;-80
2023/06/26 12:01:04;;;;;;;6.85;4.07;;;;;;;26.32;51.59;100922.50;5158442;27;20039;-79
2023/06/26 12:03:34;;;;;;;6.78;4.05;;;;;;;26.01;53.20;100938.22;5157224;27;20135;-83
2023/06/26 12:06:05;;;;;;;11.75;3.90;;;;;;;26.44;53.24;100942.75;5161617;27;20114;-83
2023/06/26 12:08:32;;;;;;;9.57;4.40;;;;;;;26.74;53.71;100930.66;5156540;27;20039;-82